sensor_id;sensor_type;location;lat;lon;timestamp;P1;durP1;ratioP1;P2;durP2;ratioP2
5900;SDS011;2976;49.764;9.796;2023-04-25T00:00:35;4.27;;;3.93;;
5900;SDS011;2976;49.764;9.796;2023-04-25T00:03:00;5.60;;;4.80;;
5900;SDS011;2976;49.764;9.796;2023-04-25T00:05:26;4.47;;;3.73;;
5900;SDS011;2976;49.764;9.796;2023-04-25T00:07:52;4.90;;;4.20;;
5900;SDS011;2976;49.764;9.796;2023-04-25T00:10:18;4.87;;;4.27;;
5900;SDS011;2976;49.764;9.796;2023-04-25T00:12:44;5.40;;;4.43;;
5900;SDS011;2976;49.764;9.796;2023-04-25T00:15:10;6.23;;;4.90;;
5900;SDS011;2976;49.764;9.796;2023-04-25T00:17:36;5.10;;;3.93;;
5900;SDS011;2976;49.764;9.796;2023-04-25T00:20:03;4.67;;;4.30;;
5900;SDS011;2976;49.764;9.796;2023-04-25T00:22:34;4.40;;;3.90;;
5900;SDS011;2976;49.764;9.796;2023-04-25T00:25:02;7.20;;;4.10;;
5900;SDS011;2976;49.764;9.796;2023-04-25T00:27:28;5.30;;;4.80;;
5900;SDS011;2976;49.764;9.796;2023-04-25T00:29:54;7.53;;;4.30;;
5900;SDS011;2976;49.764;9.796;2023-04-25T00:32:20;7.07;;;4.43;;
5900;SDS011;2976;49.764;9.796;2023-04-25T00:34:45;4.63;;;4.27;;
5900;SDS011;2976;49.764;9.796;2023-04-25T00:37:11;6.50;;;4.67;;
5900;SDS011;2976;49.764;9.796;2023-04-25T00:39:36;5.07;;;4.63;;
5900;SDS011;2976;49.764;9.796;2023-04-25T00:42:02;6.30;;;4.20;;
5900;SDS011;2976;49.764;9.796;2023-04-25T00:44:29;9.10;;;4.93;;
5900;SDS011;2976;49.764;9.796;2023-04-25T00:46:55;4.80;;;4.40;;
5900;SDS011;2976;49.764;9.796;2023-04-25T00:49:21;4.33;;;4.00;;
5900;SDS011;2976;49.764;9.796;2023-04-25T00:51:46;7.70;;;4.83;;
5900;SDS011;2976;49.764;9.796;2023-04-25T00:54:12;6.63;;;5.20;;
5900;SDS011;2976;49.764;9.796;2023-04-25T00:56:39;4.60;;;4.20;;
5900;SDS011;2976;49.764;9.796;2023-04-25T00:59:05;9.57;;;4.90;;
5900;SDS011;2976;49.764;9.796;2023-04-25T01:01:30;6.20;;;4.50;;
5900;SDS011;2976;49.764;9.796;2023-04-25T01:03:56;4.27;;;3.90;;
5900;SDS011;2976;49.764;9.796;2023-04-25T01:06:23;4.77;;;4.27;;
5900;SDS011;2976;49.764;9.796;2023-04-25T01:08:49;4.80;;;4.30;;
5900;SDS011;2976;49.764;9.796;2023-04-25T01:11:16;6.47;;;4.00;;
5900;SDS011;2976;49.764;9.796;2023-04-25T01:13:42;3.47;;;3.17;;
5900;SDS011;2976;49.764;9.796;2023-04-25T01:16:08;6.53;;;4.20;;
5900;SDS011;2976;49.764;9.796;2023-04-25T01:18:33;3.73;;;3.43;;
5900;SDS011;2976;49.764;9.796;2023-04-25T01:21:09;3.17;;;2.97;;
5900;SDS011;2976;49.764;9.796;2023-04-25T01:23:37;5.03;;;3.33;;
5900;SDS011;2976;49.764;9.796;2023-04-25T01:26:04;3.20;;;3.00;;
5900;SDS011;2976;49.764;9.796;2023-04-25T01:28:31;2.70;;;2.50;;
5900;SDS011;2976;49.764;9.796;2023-04-25T01:30:59;3.30;;;3.07;;
5900;SDS011;2976;49.764;9.796;2023-04-25T01:33:24;3.73;;;3.00;;
5900;SDS011;2976;49.764;9.796;2023-04-25T01:35:50;3.20;;;2.90;;
5900;SDS011;2976;49.764;9.796;2023-04-25T01:38:16;3.10;;;2.90;;
5900;SDS011;2976;49.764;9.796;2023-04-25T01:40:41;2.67;;;2.47;;
5900;SDS011;2976;49.764;9.796;2023-04-25T01:43:10;3.63;;;3.20;;
5900;SDS011;2976;49.764;9.796;2023-04-25T01:45:37;2.83;;;2.63;;
5900;SDS011;2976;49.764;9.796;2023-04-25T01:48:06;2.73;;;2.60;;
5900;SDS011;2976;49.764;9.796;2023-04-25T01:50:32;3.47;;;3.17;;
5900;SDS011;2976;49.764;9.796;2023-04-25T01:52:58;3.20;;;2.90;;
5900;SDS011;2976;49.764;9.796;2023-04-25T01:55:24;4.17;;;2.73;;
5900;SDS011;2976;49.764;9.796;2023-04-25T01:57:49;3.20;;;2.90;;
5900;SDS011;2976;49.764;9.796;2023-04-25T02:00:15;6.23;;;2.93;;
5900;SDS011;2976;49.764;9.796;2023-04-25T02:02:41;2.90;;;2.70;;
5900;SDS011;2976;49.764;9.796;2023-04-25T02:05:06;3.37;;;3.10;;
5900;SDS011;2976;49.764;9.796;2023-04-25T02:07:32;3.67;;;2.70;;
5900;SDS011;2976;49.764;9.796;2023-04-25T02:09:58;4.47;;;4.00;;
5900;SDS011;2976;49.764;9.796;2023-04-25T02:12:23;3.87;;;3.40;;
5900;SDS011;2976;49.764;9.796;2023-04-25T02:14:51;4.40;;;3.37;;
5900;SDS011;2976;49.764;9.796;2023-04-25T02:17:16;4.00;;;3.40;;
5900;SDS011;2976;49.764;9.796;2023-04-25T02:19:42;3.60;;;3.30;;
5900;SDS011;2976;49.764;9.796;2023-04-25T02:22:08;3.80;;;3.40;;
5900;SDS011;2976;49.764;9.796;2023-04-25T02:24:35;5.20;;;3.77;;
5900;SDS011;2976;49.764;9.796;2023-04-25T02:27:00;4.07;;;3.63;;
5900;SDS011;2976;49.764;9.796;2023-04-25T02:29:26;4.07;;;2.40;;
5900;SDS011;2976;49.764;9.796;2023-04-25T02:31:52;3.83;;;3.53;;
5900;SDS011;2976;49.764;9.796;2023-04-25T02:34:17;4.30;;;3.83;;
5900;SDS011;2976;49.764;9.796;2023-04-25T02:36:43;3.83;;;3.53;;
5900;SDS011;2976;49.764;9.796;2023-04-25T02:39:08;2.33;;;2.23;;
5900;SDS011;2976;49.764;9.796;2023-04-25T02:41:35;3.07;;;2.67;;
5900;SDS011;2976;49.764;9.796;2023-04-25T02:44:00;3.07;;;2.87;;
5900;SDS011;2976;49.764;9.796;2023-04-25T02:46:26;3.20;;;2.90;;
5900;SDS011;2976;49.764;9.796;2023-04-25T02:48:51;3.03;;;2.83;;
5900;SDS011;2976;49.764;9.796;2023-04-25T02:51:17;5.03;;;2.97;;
5900;SDS011;2976;49.764;9.796;2023-04-25T02:53:42;3.63;;;3.27;;
5900;SDS011;2976;49.764;9.796;2023-04-25T02:56:08;6.70;;;3.37;;
5900;SDS011;2976;49.764;9.796;2023-04-25T02:58:34;6.50;;;3.43;;
5900;SDS011;2976;49.764;9.796;2023-04-25T03:01:00;4.37;;;3.00;;
5900;SDS011;2976;49.764;9.796;2023-04-25T03:03:25;3.70;;;3.37;;
5900;SDS011;2976;49.764;9.796;2023-04-25T03:05:51;4.30;;;3.70;;
5900;SDS011;2976;49.764;9.796;2023-04-25T03:08:17;3.90;;;3.00;;
5900;SDS011;2976;49.764;9.796;2023-04-25T03:10:43;4.00;;;3.60;;
5900;SDS011;2976;49.764;9.796;2023-04-25T03:13:09;6.60;;;3.83;;
5900;SDS011;2976;49.764;9.796;2023-04-25T03:15:35;6.03;;;4.07;;
5900;SDS011;2976;49.764;9.796;2023-04-25T03:18:01;4.20;;;3.80;;
5900;SDS011;2976;49.764;9.796;2023-04-25T03:20:27;5.17;;;4.67;;
5900;SDS011;2976;49.764;9.796;2023-04-25T03:22:53;4.70;;;4.20;;
5900;SDS011;2976;49.764;9.796;2023-04-25T03:25:19;4.83;;;3.80;;
5900;SDS011;2976;49.764;9.796;2023-04-25T03:27:44;4.67;;;4.10;;
5900;SDS011;2976;49.764;9.796;2023-04-25T03:30:10;4.00;;;3.60;;
5900;SDS011;2976;49.764;9.796;2023-04-25T03:32:36;5.27;;;4.13;;
5900;SDS011;2976;49.764;9.796;2023-04-25T03:35:01;5.40;;;4.13;;
5900;SDS011;2976;49.764;9.796;2023-04-25T03:37:27;5.00;;;4.47;;
5900;SDS011;2976;49.764;9.796;2023-04-25T03:39:52;5.03;;;4.10;;
5900;SDS011;2976;49.764;9.796;2023-04-25T03:42:18;8.50;;;4.37;;
5900;SDS011;2976;49.764;9.796;2023-04-25T03:44:44;5.43;;;3.93;;
5900;SDS011;2976;49.764;9.796;2023-04-25T03:47:10;6.73;;;4.37;;
5900;SDS011;2976;49.764;9.796;2023-04-25T03:49:35;6.40;;;4.93;;
5900;SDS011;2976;49.764;9.796;2023-04-25T03:52:02;6.50;;;5.03;;
5900;SDS011;2976;49.764;9.796;2023-04-25T03:54:28;5.93;;;5.27;;
5900;SDS011;2976;49.764;9.796;2023-04-25T03:56:53;6.23;;;4.47;;
5900;SDS011;2976;49.764;9.796;2023-04-25T03:59:19;7.43;;;5.10;;
5900;SDS011;2976;49.764;9.796;2023-04-25T04:01:44;6.60;;;4.77;;
5900;SDS011;2976;49.764;9.796;2023-04-25T04:04:10;7.37;;;6.00;;
5900;SDS011;2976;49.764;9.796;2023-04-25T04:06:35;7.00;;;5.23;;
5900;SDS011;2976;49.764;9.796;2023-04-25T04:09:01;7.63;;;5.93;;
5900;SDS011;2976;49.764;9.796;2023-04-25T04:11:27;8.07;;;5.57;;
5900;SDS011;2976;49.764;9.796;2023-04-25T04:13:52;6.70;;;5.70;;
5900;SDS011;2976;49.764;9.796;2023-04-25T04:16:18;7.13;;;6.27;;
5900;SDS011;2976;49.764;9.796;2023-04-25T04:18:44;9.30;;;6.37;;
5900;SDS011;2976;49.764;9.796;2023-04-25T04:21:10;7.70;;;5.73;;
5900;SDS011;2976;49.764;9.796;2023-04-25T04:23:36;7.27;;;6.37;;
5900;SDS011;2976;49.764;9.796;2023-04-25T04:26:02;8.30;;;6.80;;
5900;SDS011;2976;49.764;9.796;2023-04-25T04:28:27;10.67;;;6.60;;
5900;SDS011;2976;49.764;9.796;2023-04-25T04:30:53;8.27;;;6.67;;
5900;SDS011;2976;49.764;9.796;2023-04-25T04:33:19;9.53;;;8.00;;
5900;SDS011;2976;49.764;9.796;2023-04-25T04:35:44;11.40;;;6.47;;
5900;SDS011;2976;49.764;9.796;2023-04-25T04:38:11;10.30;;;6.60;;
5900;SDS011;2976;49.764;9.796;2023-04-25T04:40:39;11.50;;;7.43;;
5900;SDS011;2976;49.764;9.796;2023-04-25T04:43:06;10.87;;;7.00;;
5900;SDS011;2976;49.764;9.796;2023-04-25T04:45:33;12.07;;;7.30;;
5900;SDS011;2976;49.764;9.796;2023-04-25T04:47:59;19.70;;;8.37;;
5900;SDS011;2976;49.764;9.796;2023-04-25T04:50:25;10.17;;;6.73;;
5900;SDS011;2976;49.764;9.796;2023-04-25T04:52:51;10.17;;;7.93;;
5900;SDS011;2976;49.764;9.796;2023-04-25T04:55:17;9.07;;;6.57;;
5900;SDS011;2976;49.764;9.796;2023-04-25T04:57:42;10.13;;;7.50;;
5900;SDS011;2976;49.764;9.796;2023-04-25T05:00:08;14.30;;;7.17;;
5900;SDS011;2976;49.764;9.796;2023-04-25T05:02:36;12.17;;;7.67;;
5900;SDS011;2976;49.764;9.796;2023-04-25T05:05:08;11.27;;;8.07;;
5900;SDS011;2976;49.764;9.796;2023-04-25T05:07:34;14.10;;;7.77;;
5900;SDS011;2976;49.764;9.796;2023-04-25T05:09:59;15.37;;;8.30;;
5900;SDS011;2976;49.764;9.796;2023-04-25T05:12:25;13.73;;;8.73;;
5900;SDS011;2976;49.764;9.796;2023-04-25T05:14:50;12.67;;;8.70;;
5900;SDS011;2976;49.764;9.796;2023-04-25T05:17:16;16.23;;;9.33;;
5900;SDS011;2976;49.764;9.796;2023-04-25T05:19:41;13.63;;;9.20;;
5900;SDS011;2976;49.764;9.796;2023-04-25T05:22:07;14.87;;;10.03;;
5900;SDS011;2976;49.764;9.796;2023-04-25T05:24:32;11.00;;;9.30;;
5900;SDS011;2976;49.764;9.796;2023-04-25T05:26:58;12.53;;;9.20;;
5900;SDS011;2976;49.764;9.796;2023-04-25T05:29:23;17.10;;;9.27;;
5900;SDS011;2976;49.764;9.796;2023-04-25T05:31:49;12.53;;;9.87;;
5900;SDS011;2976;49.764;9.796;2023-04-25T05:34:15;15.43;;;10.37;;
5900;SDS011;2976;49.764;9.796;2023-04-25T05:36:41;16.90;;;10.63;;
5900;SDS011;2976;49.764;9.796;2023-04-25T05:39:07;11.27;;;9.10;;
5900;SDS011;2976;49.764;9.796;2023-04-25T05:41:33;17.07;;;10.60;;
5900;SDS011;2976;49.764;9.796;2023-04-25T05:43:59;15.90;;;10.57;;
5900;SDS011;2976;49.764;9.796;2023-04-25T05:46:24;16.70;;;11.93;;
5900;SDS011;2976;49.764;9.796;2023-04-25T05:48:50;15.47;;;10.10;;
5900;SDS011;2976;49.764;9.796;2023-04-25T05:51:15;13.07;;;9.83;;
5900;SDS011;2976;49.764;9.796;2023-04-25T05:53:43;12.83;;;9.33;;
5900;SDS011;2976;49.764;9.796;2023-04-25T05:56:08;14.63;;;8.87;;
5900;SDS011;2976;49.764;9.796;2023-04-25T05:58:34;10.97;;;8.90;;
5900;SDS011;2976;49.764;9.796;2023-04-25T06:00:59;11.53;;;7.93;;
5900;SDS011;2976;49.764;9.796;2023-04-25T06:03:25;10.33;;;7.33;;
5900;SDS011;2976;49.764;9.796;2023-04-25T06:05:51;11.50;;;7.87;;
5900;SDS011;2976;49.764;9.796;2023-04-25T06:08:16;12.93;;;7.83;;
5900;SDS011;2976;49.764;9.796;2023-04-25T06:10:42;13.37;;;8.70;;
5900;SDS011;2976;49.764;9.796;2023-04-25T06:13:08;10.43;;;7.43;;
5900;SDS011;2976;49.764;9.796;2023-04-25T06:15:33;16.13;;;7.70;;
5900;SDS011;2976;49.764;9.796;2023-04-25T06:17:59;13.73;;;8.10;;
5900;SDS011;2976;49.764;9.796;2023-04-25T06:20:25;11.93;;;7.57;;
5900;SDS011;2976;49.764;9.796;2023-04-25T06:22:51;9.60;;;7.53;;
5900;SDS011;2976;49.764;9.796;2023-04-25T06:25:17;9.60;;;7.60;;
5900;SDS011;2976;49.764;9.796;2023-04-25T06:27:42;9.63;;;6.53;;
5900;SDS011;2976;49.764;9.796;2023-04-25T06:30:08;9.03;;;7.83;;
5900;SDS011;2976;49.764;9.796;2023-04-25T06:32:34;13.80;;;7.53;;
5900;SDS011;2976;49.764;9.796;2023-04-25T06:35:00;15.13;;;7.40;;
5900;SDS011;2976;49.764;9.796;2023-04-25T06:37:26;8.83;;;6.43;;
5900;SDS011;2976;49.764;9.796;2023-04-25T06:39:51;9.93;;;7.00;;
5900;SDS011;2976;49.764;9.796;2023-04-25T06:42:17;13.80;;;7.80;;
5900;SDS011;2976;49.764;9.796;2023-04-25T06:44:43;12.93;;;7.13;;
5900;SDS011;2976;49.764;9.796;2023-04-25T06:47:08;10.97;;;7.67;;
5900;SDS011;2976;49.764;9.796;2023-04-25T06:49:34;11.93;;;8.23;;
5900;SDS011;2976;49.764;9.796;2023-04-25T06:51:59;11.77;;;8.00;;
5900;SDS011;2976;49.764;9.796;2023-04-25T06:54:25;9.40;;;6.97;;
5900;SDS011;2976;49.764;9.796;2023-04-25T06:56:52;11.70;;;5.90;;
5900;SDS011;2976;49.764;9.796;2023-04-25T06:59:18;12.50;;;6.53;;
5900;SDS011;2976;49.764;9.796;2023-04-25T07:01:43;9.93;;;5.83;;
5900;SDS011;2976;49.764;9.796;2023-04-25T07:04:09;12.93;;;6.47;;
5900;SDS011;2976;49.764;9.796;2023-04-25T07:06:35;7.70;;;6.57;;
5900;SDS011;2976;49.764;9.796;2023-04-25T07:09:03;10.27;;;6.27;;
5900;SDS011;2976;49.764;9.796;2023-04-25T07:11:29;11.33;;;7.00;;
5900;SDS011;2976;49.764;9.796;2023-04-25T07:13:55;9.97;;;5.77;;
5900;SDS011;2976;49.764;9.796;2023-04-25T07:16:20;7.20;;;5.50;;
5900;SDS011;2976;49.764;9.796;2023-04-25T07:18:46;10.73;;;5.60;;
5900;SDS011;2976;49.764;9.796;2023-04-25T07:21:11;13.30;;;5.33;;
5900;SDS011;2976;49.764;9.796;2023-04-25T07:23:37;8.27;;;4.83;;
5900;SDS011;2976;49.764;9.796;2023-04-25T07:26:05;4.57;;;3.10;;
5900;SDS011;2976;49.764;9.796;2023-04-25T07:28:31;6.50;;;3.20;;
5900;SDS011;2976;49.764;9.796;2023-04-25T07:30:56;7.60;;;3.40;;
5900;SDS011;2976;49.764;9.796;2023-04-25T07:33:23;5.20;;;3.23;;
5900;SDS011;2976;49.764;9.796;2023-04-25T07:35:48;6.83;;;3.13;;
5900;SDS011;2976;49.764;9.796;2023-04-25T07:38:15;4.47;;;2.90;;
5900;SDS011;2976;49.764;9.796;2023-04-25T07:40:40;3.60;;;3.10;;
5900;SDS011;2976;49.764;9.796;2023-04-25T07:43:06;6.00;;;3.27;;
5900;SDS011;2976;49.764;9.796;2023-04-25T07:45:31;6.07;;;3.60;;
5900;SDS011;2976;49.764;9.796;2023-04-25T07:47:57;4.63;;;2.63;;
5900;SDS011;2976;49.764;9.796;2023-04-25T07:50:22;5.90;;;3.57;;
5900;SDS011;2976;49.764;9.796;2023-04-25T07:52:48;7.03;;;2.80;;
5900;SDS011;2976;49.764;9.796;2023-04-25T07:55:14;8.30;;;2.63;;
5900;SDS011;2976;49.764;9.796;2023-04-25T07:57:39;5.57;;;3.17;;
5900;SDS011;2976;49.764;9.796;2023-04-25T08:00:05;6.17;;;2.80;;
5900;SDS011;2976;49.764;9.796;2023-04-25T08:02:34;8.80;;;3.20;;
5900;SDS011;2976;49.764;9.796;2023-04-25T08:05:00;4.50;;;2.60;;
5900;SDS011;2976;49.764;9.796;2023-04-25T08:07:25;4.47;;;2.77;;
5900;SDS011;2976;49.764;9.796;2023-04-25T08:09:51;5.10;;;3.40;;
5900;SDS011;2976;49.764;9.796;2023-04-25T08:12:17;6.13;;;2.30;;
5900;SDS011;2976;49.764;9.796;2023-04-25T08:14:43;4.80;;;2.17;;
5900;SDS011;2976;49.764;9.796;2023-04-25T08:17:09;6.90;;;2.50;;
5900;SDS011;2976;49.764;9.796;2023-04-25T08:19:34;5.47;;;2.20;;
5900;SDS011;2976;49.764;9.796;2023-04-25T08:22:00;6.73;;;2.07;;
5900;SDS011;2976;49.764;9.796;2023-04-25T08:24:26;5.23;;;2.00;;
5900;SDS011;2976;49.764;9.796;2023-04-25T08:26:51;7.07;;;2.20;;
5900;SDS011;2976;49.764;9.796;2023-04-25T08:29:17;4.00;;;1.90;;
5900;SDS011;2976;49.764;9.796;2023-04-25T08:31:43;9.63;;;2.30;;
5900;SDS011;2976;49.764;9.796;2023-04-25T08:34:08;3.00;;;1.80;;
5900;SDS011;2976;49.764;9.796;2023-04-25T08:36:34;2.57;;;2.37;;
5900;SDS011;2976;49.764;9.796;2023-04-25T08:39:00;5.33;;;2.47;;
5900;SDS011;2976;49.764;9.796;2023-04-25T08:41:25;3.90;;;2.23;;
5900;SDS011;2976;49.764;9.796;2023-04-25T08:43:52;6.80;;;2.47;;
5900;SDS011;2976;49.764;9.796;2023-04-25T08:46:18;2.83;;;2.00;;
5900;SDS011;2976;49.764;9.796;2023-04-25T08:48:45;4.50;;;2.70;;
5900;SDS011;2976;49.764;9.796;2023-04-25T08:51:22;3.67;;;1.93;;
5900;SDS011;2976;49.764;9.796;2023-04-25T08:53:52;4.03;;;1.90;;
5900;SDS011;2976;49.764;9.796;2023-04-25T08:56:18;3.27;;;2.00;;
5900;SDS011;2976;49.764;9.796;2023-04-25T08:58:50;11.10;;;2.00;;
5900;SDS011;2976;49.764;9.796;2023-04-25T09:01:15;3.30;;;2.20;;
5900;SDS011;2976;49.764;9.796;2023-04-25T09:03:42;8.87;;;2.40;;
5900;SDS011;2976;49.764;9.796;2023-04-25T09:06:09;5.03;;;2.17;;
5900;SDS011;2976;49.764;9.796;2023-04-25T09:08:36;3.70;;;2.07;;
5900;SDS011;2976;49.764;9.796;2023-04-25T09:11:02;2.83;;;2.10;;
5900;SDS011;2976;49.764;9.796;2023-04-25T09:13:28;2.57;;;2.20;;
5900;SDS011;2976;49.764;9.796;2023-04-25T09:15:55;2.40;;;1.77;;
5900;SDS011;2976;49.764;9.796;2023-04-25T09:18:28;2.20;;;2.00;;
5900;SDS011;2976;49.764;9.796;2023-04-25T09:20:56;2.97;;;1.93;;
5900;SDS011;2976;49.764;9.796;2023-04-25T09:23:24;2.00;;;1.90;;
5900;SDS011;2976;49.764;9.796;2023-04-25T09:25:50;2.33;;;1.83;;
5900;SDS011;2976;49.764;9.796;2023-04-25T09:28:22;4.00;;;1.87;;
5900;SDS011;2976;49.764;9.796;2023-04-25T09:30:54;3.73;;;1.80;;
5900;SDS011;2976;49.764;9.796;2023-04-25T09:33:23;3.60;;;2.13;;
5900;SDS011;2976;49.764;9.796;2023-04-25T09:36:01;2.93;;;1.80;;
5900;SDS011;2976;49.764;9.796;2023-04-25T09:38:28;6.20;;;2.30;;
5900;SDS011;2976;49.764;9.796;2023-04-25T09:41:05;3.00;;;1.90;;
5900;SDS011;2976;49.764;9.796;2023-04-25T09:43:30;3.27;;;2.27;;
5900;SDS011;2976;49.764;9.796;2023-04-25T09:45:56;2.20;;;1.70;;
5900;SDS011;2976;49.764;9.796;2023-04-25T09:48:24;4.10;;;2.13;;
5900;SDS011;2976;49.764;9.796;2023-04-25T09:53:37;8.97;;;2.00;;
5900;SDS011;2976;49.764;9.796;2023-04-25T09:56:05;4.00;;;2.03;;
5900;SDS011;2976;49.764;9.796;2023-04-25T09:58:32;3.40;;;1.87;;
5900;SDS011;2976;49.764;9.796;2023-04-25T10:00:59;3.87;;;2.13;;
5900;SDS011;2976;49.764;9.796;2023-04-25T10:03:29;4.70;;;2.73;;
5900;SDS011;2976;49.764;9.796;2023-04-25T10:05:57;2.23;;;2.00;;
5900;SDS011;2976;49.764;9.796;2023-04-25T10:08:28;2.53;;;1.83;;
5900;SDS011;2976;49.764;9.796;2023-04-25T10:10:59;2.90;;;2.13;;
5900;SDS011;2976;49.764;9.796;2023-04-25T10:13:26;5.70;;;1.70;;
5900;SDS011;2976;49.764;9.796;2023-04-25T10:15:53;3.40;;;1.70;;
5900;SDS011;2976;49.764;9.796;2023-04-25T10:18:20;2.00;;;1.73;;
5900;SDS011;2976;49.764;9.796;2023-04-25T10:20:46;3.50;;;2.03;;
5900;SDS011;2976;49.764;9.796;2023-04-25T10:23:12;2.67;;;2.00;;
5900;SDS011;2976;49.764;9.796;2023-04-25T10:25:40;4.23;;;1.70;;
5900;SDS011;2976;49.764;9.796;2023-04-25T10:28:06;1.87;;;1.77;;
5900;SDS011;2976;49.764;9.796;2023-04-25T10:30:31;4.33;;;2.40;;
5900;SDS011;2976;49.764;9.796;2023-04-25T10:32:58;3.90;;;2.10;;
5900;SDS011;2976;49.764;9.796;2023-04-25T10:35:25;4.70;;;2.27;;
5900;SDS011;2976;49.764;9.796;2023-04-25T10:38:05;7.20;;;2.53;;
5900;SDS011;2976;49.764;9.796;2023-04-25T10:40:34;2.90;;;2.43;;
5900;SDS011;2976;49.764;9.796;2023-04-25T10:45:56;4.13;;;2.00;;
5900;SDS011;2976;49.764;9.796;2023-04-25T10:48:30;1.77;;;1.67;;
5900;SDS011;2976;49.764;9.796;2023-04-25T10:51:12;2.67;;;1.77;;
5900;SDS011;2976;49.764;9.796;2023-04-25T10:56:20;2.23;;;2.03;;
5900;SDS011;2976;49.764;9.796;2023-04-25T10:58:46;3.43;;;1.97;;
5900;SDS011;2976;49.764;9.796;2023-04-25T11:01:15;6.87;;;2.10;;
5900;SDS011;2976;49.764;9.796;2023-04-25T11:03:45;2.43;;;2.23;;
5900;SDS011;2976;49.764;9.796;2023-04-25T11:06:17;3.90;;;2.20;;
5900;SDS011;2976;49.764;9.796;2023-04-25T11:08:48;1.83;;;1.73;;
5900;SDS011;2976;49.764;9.796;2023-04-25T11:11:16;2.07;;;1.87;;
5900;SDS011;2976;49.764;9.796;2023-04-25T11:13:43;3.83;;;1.60;;
5900;SDS011;2976;49.764;9.796;2023-04-25T11:16:08;4.77;;;1.70;;
5900;SDS011;2976;49.764;9.796;2023-04-25T11:18:34;2.50;;;1.90;;
5900;SDS011;2976;49.764;9.796;2023-04-25T11:20:59;4.77;;;2.30;;
5900;SDS011;2976;49.764;9.796;2023-04-25T11:23:25;3.83;;;2.00;;
5900;SDS011;2976;49.764;9.796;2023-04-25T11:25:54;5.40;;;2.07;;
5900;SDS011;2976;49.764;9.796;2023-04-25T11:28:20;3.80;;;2.33;;
5900;SDS011;2976;49.764;9.796;2023-04-25T11:30:50;2.53;;;2.33;;
5900;SDS011;2976;49.764;9.796;2023-04-25T11:33:15;2.03;;;1.93;;
5900;SDS011;2976;49.764;9.796;2023-04-25T11:35:42;2.53;;;1.50;;
5900;SDS011;2976;49.764;9.796;2023-04-25T11:38:07;4.50;;;1.90;;
5900;SDS011;2976;49.764;9.796;2023-04-25T11:40:33;3.77;;;1.60;;
5900;SDS011;2976;49.764;9.796;2023-04-25T11:43:00;2.80;;;1.70;;
5900;SDS011;2976;49.764;9.796;2023-04-25T11:45:26;6.40;;;2.57;;
5900;SDS011;2976;49.764;9.796;2023-04-25T11:47:53;3.20;;;2.40;;
5900;SDS011;2976;49.764;9.796;2023-04-25T11:50:19;3.70;;;2.07;;
5900;SDS011;2976;49.764;9.796;2023-04-25T11:52:45;3.33;;;2.07;;
5900;SDS011;2976;49.764;9.796;2023-04-25T11:55:15;3.40;;;1.90;;
5900;SDS011;2976;49.764;9.796;2023-04-25T11:57:43;3.30;;;2.23;;
5900;SDS011;2976;49.764;9.796;2023-04-25T12:02:40;7.43;;;2.90;;
5900;SDS011;2976;49.764;9.796;2023-04-25T12:05:07;1.90;;;1.70;;
5900;SDS011;2976;49.764;9.796;2023-04-25T12:07:33;6.20;;;2.20;;
5900;SDS011;2976;49.764;9.796;2023-04-25T12:10:03;5.10;;;2.20;;
5900;SDS011;2976;49.764;9.796;2023-04-25T12:12:34;4.60;;;2.57;;
5900;SDS011;2976;49.764;9.796;2023-04-25T12:15:16;3.47;;;2.50;;
5900;SDS011;2976;49.764;9.796;2023-04-25T12:17:46;2.43;;;2.00;;
5900;SDS011;2976;49.764;9.796;2023-04-25T12:20:13;6.27;;;2.00;;
5900;SDS011;2976;49.764;9.796;2023-04-25T12:22:41;1.87;;;1.73;;
5900;SDS011;2976;49.764;9.796;2023-04-25T12:25:10;2.63;;;2.33;;
5900;SDS011;2976;49.764;9.796;2023-04-25T12:27:36;4.53;;;2.93;;
5900;SDS011;2976;49.764;9.796;2023-04-25T12:30:02;2.30;;;2.10;;
5900;SDS011;2976;49.764;9.796;2023-04-25T12:32:28;4.10;;;2.10;;
5900;SDS011;2976;49.764;9.796;2023-04-25T12:34:54;5.00;;;2.70;;
5900;SDS011;2976;49.764;9.796;2023-04-25T12:37:19;3.17;;;2.83;;
5900;SDS011;2976;49.764;9.796;2023-04-25T12:39:45;5.80;;;2.90;;
5900;SDS011;2976;49.764;9.796;2023-04-25T12:42:11;3.10;;;2.63;;
5900;SDS011;2976;49.764;9.796;2023-04-25T12:44:37;5.17;;;3.67;;
5900;SDS011;2976;49.764;9.796;2023-04-25T12:47:03;3.10;;;2.77;;
5900;SDS011;2976;49.764;9.796;2023-04-25T12:49:29;5.90;;;3.27;;
5900;SDS011;2976;49.764;9.796;2023-04-25T12:51:54;2.97;;;2.77;;
5900;SDS011;2976;49.764;9.796;2023-04-25T12:54:20;3.90;;;3.17;;
5900;SDS011;2976;49.764;9.796;2023-04-25T12:56:45;6.93;;;2.70;;
5900;SDS011;2976;49.764;9.796;2023-04-25T12:59:12;6.80;;;3.57;;
5900;SDS011;2976;49.764;9.796;2023-04-25T13:01:37;5.07;;;3.00;;
5900;SDS011;2976;49.764;9.796;2023-04-25T13:04:03;5.97;;;3.63;;
5900;SDS011;2976;49.764;9.796;2023-04-25T13:06:28;3.60;;;2.90;;
5900;SDS011;2976;49.764;9.796;2023-04-25T13:08:57;3.07;;;2.73;;
5900;SDS011;2976;49.764;9.796;2023-04-25T13:11:22;5.40;;;3.07;;
5900;SDS011;2976;49.764;9.796;2023-04-25T13:13:48;3.77;;;3.30;;
5900;SDS011;2976;49.764;9.796;2023-04-25T13:16:13;3.97;;;3.43;;
5900;SDS011;2976;49.764;9.796;2023-04-25T13:18:40;5.00;;;3.50;;
5900;SDS011;2976;49.764;9.796;2023-04-25T13:21:05;5.70;;;3.20;;
5900;SDS011;2976;49.764;9.796;2023-04-25T13:23:31;6.60;;;3.30;;
5900;SDS011;2976;49.764;9.796;2023-04-25T13:25:56;5.37;;;3.57;;
5900;SDS011;2976;49.764;9.796;2023-04-25T13:28:23;6.70;;;3.10;;
5900;SDS011;2976;49.764;9.796;2023-04-25T13:30:51;10.23;;;3.63;;
5900;SDS011;2976;49.764;9.796;2023-04-25T13:33:17;4.23;;;2.83;;
5900;SDS011;2976;49.764;9.796;2023-04-25T13:35:43;2.87;;;2.67;;
5900;SDS011;2976;49.764;9.796;2023-04-25T13:38:12;5.87;;;2.97;;
5900;SDS011;2976;49.764;9.796;2023-04-25T13:40:38;8.37;;;3.13;;
5900;SDS011;2976;49.764;9.796;2023-04-25T13:43:03;5.13;;;2.70;;
5900;SDS011;2976;49.764;9.796;2023-04-25T13:45:29;2.93;;;2.63;;
5900;SDS011;2976;49.764;9.796;2023-04-25T13:47:55;4.90;;;2.40;;
5900;SDS011;2976;49.764;9.796;2023-04-25T13:50:20;2.07;;;1.97;;
5900;SDS011;2976;49.764;9.796;2023-04-25T13:52:46;3.07;;;2.77;;
5900;SDS011;2976;49.764;9.796;2023-04-25T13:55:11;4.93;;;2.63;;
5900;SDS011;2976;49.764;9.796;2023-04-25T13:57:37;2.77;;;2.57;;
5900;SDS011;2976;49.764;9.796;2023-04-25T14:00:03;3.80;;;2.50;;
5900;SDS011;2976;49.764;9.796;2023-04-25T14:02:34;4.00;;;2.37;;
5900;SDS011;2976;49.764;9.796;2023-04-25T14:05:00;5.30;;;2.37;;
5900;SDS011;2976;49.764;9.796;2023-04-25T14:07:26;4.70;;;2.50;;
5900;SDS011;2976;49.764;9.796;2023-04-25T14:09:51;3.67;;;2.37;;
5900;SDS011;2976;49.764;9.796;2023-04-25T14:12:17;2.27;;;1.90;;
5900;SDS011;2976;49.764;9.796;2023-04-25T14:14:42;6.67;;;1.97;;
5900;SDS011;2976;49.764;9.796;2023-04-25T14:17:08;4.23;;;2.40;;
5900;SDS011;2976;49.764;9.796;2023-04-25T14:19:34;7.93;;;2.63;;
5900;SDS011;2976;49.764;9.796;2023-04-25T14:21:59;4.60;;;2.10;;
5900;SDS011;2976;49.764;9.796;2023-04-25T14:24:25;3.53;;;1.90;;
5900;SDS011;2976;49.764;9.796;2023-04-25T14:26:51;6.93;;;2.47;;
5900;SDS011;2976;49.764;9.796;2023-04-25T14:29:16;3.93;;;2.20;;
5900;SDS011;2976;49.764;9.796;2023-04-25T14:31:42;4.93;;;2.80;;
5900;SDS011;2976;49.764;9.796;2023-04-25T14:34:07;3.50;;;2.20;;
5900;SDS011;2976;49.764;9.796;2023-04-25T14:36:33;2.10;;;1.90;;
5900;SDS011;2976;49.764;9.796;2023-04-25T14:39:00;4.37;;;2.40;;
5900;SDS011;2976;49.764;9.796;2023-04-25T14:41:26;3.23;;;1.80;;
5900;SDS011;2976;49.764;9.796;2023-04-25T14:43:52;4.70;;;2.70;;
5900;SDS011;2976;49.764;9.796;2023-04-25T14:46:18;5.53;;;1.87;;
5900;SDS011;2976;49.764;9.796;2023-04-25T14:48:44;6.20;;;2.67;;
5900;SDS011;2976;49.764;9.796;2023-04-25T14:51:10;3.40;;;2.07;;
5900;SDS011;2976;49.764;9.796;2023-04-25T14:53:36;2.43;;;2.13;;
5900;SDS011;2976;49.764;9.796;2023-04-25T14:56:02;6.63;;;1.87;;
5900;SDS011;2976;49.764;9.796;2023-04-25T14:58:27;3.10;;;1.90;;
5900;SDS011;2976;49.764;9.796;2023-04-25T15:00:53;6.90;;;2.03;;
5900;SDS011;2976;49.764;9.796;2023-04-25T15:03:18;5.40;;;2.13;;
5900;SDS011;2976;49.764;9.796;2023-04-25T15:05:44;5.07;;;2.10;;
5900;SDS011;2976;49.764;9.796;2023-04-25T15:08:09;4.77;;;1.77;;
5900;SDS011;2976;49.764;9.796;2023-04-25T15:10:35;6.53;;;1.90;;
5900;SDS011;2976;49.764;9.796;2023-04-25T15:13:01;6.43;;;2.70;;
5900;SDS011;2976;49.764;9.796;2023-04-25T15:15:27;4.83;;;2.43;;
5900;SDS011;2976;49.764;9.796;2023-04-25T15:17:53;5.87;;;2.03;;